Windsor, CT (06095)

11:45 AM EST on December 26, 2014 (GMT -0500)
Philip's Backyard, Poquonock Area/Village Lane | Change Station
CLOSE
Current Station
Personal Weather Station
Location: Windsor, CT
Elevation: 161 ft
Nearby Weather Stations

Elev 161 ft 41.88 °N, 72.68 °W | Updated 1 second ago

Partly Cloudy
Partly Cloudy
47.1 °F
Feels Like 43 °F
N
8.1
Wind Variable Wind from NNE
Gusts 8.1 mph

Today
High -- | Low -- °F
--% Chance of Precip.
Yesterday
High -- | Low -- °F
Precip. -- in
7:16 AM 4:25 PM
Waxing Crescent, 27% visible
Pressure 30.20 in
Visibility 10.0 miles
Clouds Mostly Cloudy 3700 ft
Mostly Cloudy 25000 ft
Windchill 43 °F
Dew Point 26 °F
Humidity 43%
Rainfall 0.00 in
Snow Depth Not available.
UV 1 out of 12
Pollen .10 out of 12
Air Quality Not available.
Flu Activity Not available.
METAR KBDL 261551Z 32014KT 10SM BKN037 BKN250 08/M02 A3020 RMK AO2 SLP227 T00831017

More Conditions Fewer Conditions

Pressure 30.20 in
Visibility 10.0 miles
Clouds Mostly Cloudy 3700 ft
Mostly Cloudy 25000 ft
Windchill 43 °F
Dew Point 26 °F
Humidity 43%
Rainfall 0.00 in
Snow Depth Not available.
UV 1 out of 12
Pollen .10 out of 12
Air Quality Not available.
Flu Activity Not available.
METAR KBDL 261551Z 32014KT 10SM BKN037 BKN250 08/M02 A3020 RMK AO2 SLP227 T00831017

More Conditions Fewer Conditions

10-Day Weather Forecast

Almanac

Astronomy

Dec. 26, 2014 Rise Set
Actual Time
Civil Twilight
Nautical Twilight
Astronomical Twilight
Moon
Length of Visible Light
Length of Day
Tomorrow will be .
, % of the Moon is Illuminated

Today's Extremes

State Highs State Lows

Community

WunderPhotos

Upload Photos

1,780,632 photos uploaded!

WunderBlogs® & News

Nearby

Air Quality

  Air Quality AQ Index Pollutant
Not available.

Snow Depth

Station Depth Elevation

Earthquake Activity

City Distance Mag. Time & Date
Minimum magnitude displayed is 2.5.

Coastal Water Temperatures

Place Temperature

Nearby Weather Stations